Team Results

This is the team results viewer. You will be able to find the teams that have participated in many years of the KCIBR.
You can filter by year, team name, category and gender. If you get lost just press the reset button.

Individual Results

Year Team Bib Team Time Category Team Rank by Category Team Rank by Race Team Status Team City
2014 Mai Tai Riders 841 11:07:36 Mixed 8 Person 30 182/316 Whitehorse, YT
2014 Minounes sur roues 844 11:08:16 Womens 8 Person 4 183/316 Whitehorse, YT
2014 Chicks on Slicks 814 11:08:39 Womens 8 Person 5 184/316 Whitehorse, YT
2014 Road Kill 479 11:09:11 Mixed 4 Person 45 185/316 Marsh Lake, YT
2014 The Haggard 874 11:10:28 Mixed 8 Person 31 186/316 Whitehorse, YT
2014 Slo Mo 861 11:11:08 Mixed 8 Person 32 187/316 Haines, AK
2014 The full moon riders 873 11:11:38 Mixed 8 Person 33 188/316 Whitehorse, YT
2014 Who Has Seen The Winded 248 11:12:18 Womens 2 Person 3 189/316 Whitehorse, YT
2014 Braking Bad 809 11:12:44 Mixed 8 Person 34 190/316 Ross River, YT
2014 C4 418 11:13:15 Mixed 4 Person 46 191/316 Whitehorse, YT
2014 April Flowers Bring Kim Powers 203 11:15:44 Womens 2 Person 4 192/316 Juneau, AK
2014 Two de Tour 241 11:16:12 Womens 2 Person 5 193/316 Whitehorse, YT
2014 Kazaa! 451 11:17:59 Womens 4 Person 22 194/316 Whitehorse, YT
2014 Summit Picnic Club 147 11:18:25 Mens Solo 24 195/316 Juneau, AK
2014 A small furry animal grooving in a cave with a pic 103 11:18:30 Mens Solo 25 196/316 Juneau, AK
2014 EO66 118 11:18:36 Mens Solo 26 197/316 juneau, AK
2014 A Robin Hopping in the Yard 102 11:18:40 Mens Solo 27 198/316 Juneau, AK
2014 William T. Vollmann Appreciation Society 133 11:18:47 Mens Solo 28 199/316 Whitehorse, YT
2014 One Hurtin' Albertan 130 11:18:59 Mens Solo 29 200/316 Grande Prairie, AB
2014 Pushin' Tushins 856 11:19:02 Womens 8 Person 0 201/316 mp Whitehorse, YT
2014 Mooning Minions 845 11:19:18 Mixed 8 Person 35 202/316 Saskatoon, SK
2014 Cycho's 817 11:20:43 Mixed 8 Person 36 203/316 Whitehorse, YT
2014 Cadence Eyreheads 810 11:22:15 Mixed 8 Person 37 204/316 Whitehorse, YT
2014 Old Crow Bicycle Show 848 11:22:36 Mixed 8 Person 38 205/316 Whitehorse, YT
2014 A Few Loose Nuts 404 11:22:47 Mixed 4 Person 47 206/316 Whitehorse, YT
2014 Team Shitbuffalo 502 11:23:09 Mens 4 Person 23 207/316 Whitehorse, YT
2014 Pb Women 132 11:24:24 Womens Solo 6 208/316 Whitehorse, YT
2014 Tupper Cycle Club 155 11:25:05 Mens Solo 30 209/316 Vancouver, BC
2014 Evy 119 11:25:09 Womens Solo 7 210/316 Burnaby, BC
2014 Fesses de fer 433 11:28:00 Womens 4 Person 23 211/316 Whitehorse, YT
2014 Team DISK 500 11:28:09 Mixed 4 Person 48 212/316 Whitehorse, YT
2014 The Easy Riders 872 11:28:25 Mixed 8 Person 39 213/316 Whitehorse, YT
2014 Scotia Bank Team 1 480 11:28:45 Womens 4 Person 24 214/316 Whitehorse, YT
2014 The Quad Squad 875 11:29:00 Mens 8 Person 2 215/316 whitehorse, YT
2014 We're Coming! 886 11:31:15 Mixed 8 Person 40 216/316 Whitehorse, YT
2014 2 Chainz 801 11:34:25 Mixed 8 Person 41 217/316 Whitehorse, YT
2014 Ride On 857 11:34:34 Womens 8 Person 7 218/316 Whiteman AFB, MO
2014 Donjek Drilling 820 11:35:52 Mixed 8 Person 42 219/316 Whitehorse, YT
2014 Scotia Bank Team 2 481 11:35:55 Womens 4 Person 25 220/316 Whitehorse, YT
2014 Sea Legs 483 11:36:40 Mixed 4 Person 49 221/316 Toronto, ON
2014 Arcrite Zappers 406 11:36:46 Mixed 4 Person 50 222/316 Whitehorse, YT
2014 Well Good for you Two 245 11:37:34 Mixed 2 Person 14 223/316 Juneau, AK
2014 Holly Rollers 827 11:37:58 Mixed 8 Person 43 224/316 Whitehorse, YT
2014 Get it Done 438 11:39:11 Womens 4 Person 0 225/316 dsq Fairbanks, AK
2014 Chilkat chicks 815 11:41:30 Womens 8 Person 8 226/316 Haines, AK
2014 Spoke 'N Hot 496 11:43:44 Womens 4 Person 27 227/316 Juneau, AK
2014 Sheep Killin' Dogs (Rec.) 485 11:44:03 Mixed 4 Person 51 228/316 San Francisco, CA
2014 Candle Power 811 11:44:15 Mixed 8 Person 44 229/316 Haines, AK
2014 Joy and the Joy Boys 832 11:44:19 Mixed 8 Person 45 230/316 Whitehorse, YT
2014 Year of 1946 162 11:44:39 Mens Solo 31 231/316 Atlin, BC
2014 Southeast Bikologists 495 11:44:50 Mixed 4 Person 52 232/316 Sitka, AK
2014 Judith's Priests 447 11:45:30 Mixed 4 Person 53 233/316 Vancouver, BC
2014 Wheels of Steel (Rec.) 247 11:46:12 Mens 2 Person 19 234/316 Whitehorse, YT
2014 U Kon Tandem 881 11:47:49 Mixed 8 Person 46 235/316 whitehorse, YT
2014 It's Always Sunny in Haines 446 11:47:57 Mixed 4 Person 54 236/316 Whitehorse, YT
2014 Lightnin' (Rec.) 459 11:48:16 Mixed 4 Person 55 237/316 Whitehorse, YT
2014 We have something in Commons 884 11:48:30 Mixed 8 Person 47 238/316 Whitehorse, YT
2014 The Wheels of Justice Move Slowly 237 11:49:09 Womens 2 Person 6 239/316 Whitehorse, YT
2014 Petal Pushers 851 11:49:32 Mixed 8 Person 48 240/316 Whitehorse, YT
2014 Les Goons de la Peel 838 11:50:03 Mixed 8 Person 49 241/316 Whitehorse, YT
2014 Innertube Ninjas 829 11:54:31 Mixed 8 Person 50 242/316 Whitehorse, YT
2014 Two Sets of Spoked Nipples 242 11:55:08 Womens 2 Person 7 243/316 Juneau, AK
2014 Yukon Chicks on Top 528 11:55:20 Womens 4 Person 28 244/316 Whitehorse, YT
2014 I'd Draft That 445 11:55:47 Mixed 4 Person 56 245/316 Whitehorse, YT
2014 Ptarmageddon 855 11:58:03 Mixed 8 Person 51 246/316 Whitehorse, YT
2014 Team No Sé 868 11:58:56 Mixed 8 Person 52 247/316 Whitehorse, YT
2014 Hot Snot 443 11:59:11 Womens 4 Person 29 248/316 Whitehorse, YT
2014 Charlie Sassara 109 11:59:59 Mens Solo 32 249/316 Anchorage, AK
2014 Soul chubby 121 12:00:06 Mens Solo 33 250/316 Richmond, BC
2014 The Chum 152 12:00:11 Mens Solo 34 251/316 Beaumont, AB
2014 We Wheel Hard 885 12:00:43 Mixed 8 Person 53 252/316 Whitehorse, YT
2014 Wind(y) Wheelers 890 12:02:37 Mixed 8 Person 54 253/316 Whitehorse, YT
2014 All Breeds 803 12:04:23 Mixed 8 Person 55 254/316 Whitehorse, YT
2014 Alur Dän Tän Riders 804 12:04:49 Womens 8 Person 9 255/316 Haines Junction, YT
2014 Shoot The Moon 858 12:07:30 Mixed 8 Person 56 256/316 Juneau, AK
2014 Spoke n hot bros 865 12:11:15 Mixed 8 Person 57 257/316 whitehorse, YT
2014 Kestin 833 12:13:20 Mixed 8 Person 58 258/316 Brandon, MB
2014 Tyrannocyclists 880 12:15:39 Mixed 8 Person 59 259/316 Georgetown, ON
2014 Fork N Tyred 822 12:15:45 Mixed 8 Person 60 260/316 Whitehorse, YT
2014 Caution pass on the left 422 12:15:50 Womens 4 Person 30 261/316 Juneau, AK
2014 Laughing Fury of Unabated Wunder 456 12:16:24 Mixed 4 Person 57 262/316 Whitehorse, YT
2014 K-Squad 454 12:16:50 Womens 4 Person 31 263/316 Atlin, BC
2014 More torque than a Honda 846 12:19:30 Mixed 8 Person 61 264/316 Whitehorse, YT
2014 The Squirrelites 877 12:22:22 Mixed 8 Person 62 265/316 Montreal, PQ
2014 Łu Ghą Dän 840 12:22:51 Mixed 8 Person 63 266/316 Whitehorse, YT
2014 Plastered Basterds 852 12:26:21 Mixed 8 Person 64 267/316 Whitehorse, YT
2014 ChasingtheSun 813 12:29:53 Mixed 8 Person 0 268/316 dnf whitehorse, YT
2014 Whfd 888 12:30:08 Mens 8 Person 3 269/316 Whitehorse, YT
2014 Lean Mean Dream Team 837 12:31:27 Womens 8 Person 0 270/316 dsq Whitehorse, YT
2014 Winers not Whiners - FabCab 249 12:31:30 Womens 2 Person 8 271/316 Juneau, AK
2014 The Furious Frenchman 154 12:32:59 Mens Solo 35 272/316 Whitehorse, YT
2014 Make it slow 842 12:33:05 Mixed 8 Person 66 273/316 whitehorse, YT
2014 Glacier Chasers 440 12:40:50 Womens 4 Person 32 274/316 Whitehorse, YT
2014 Babies on Board, Old Man on Back 408 12:41:18 Mixed 4 Person 58 275/316 Fairbanks, AK
2014 Bad idea 106 12:46:11 Mens Solo 36 276/316 Haines Junction, YT
2014 The Young, The Old and The Aussie 511 12:47:55 Mixed 4 Person 59 277/316 Whitehorse, YT
2014 Pelly Street Road Bikers 850 12:50:16 Mixed 8 Person 67 278/316 Whitehorse, YT
2014 Hart Attack 826 12:52:42 Womens 8 Person 11 279/316 Whitehorse, YT
2014 Teslin Rusty Sprockets 869 12:55:02 Mixed 8 Person 68 280/316 Teslin, YT
2014 Les ours à gants de vélo 458 12:59:57 Mens 4 Person 24 281/316 Whitehorse, YT
2014 Wii Not Fit 524 13:05:13 Mixed 4 Person 60 282/316 Whitehorse, YT
2014 Banana Peels 410 13:08:25 Mixed 4 Person 61 283/316 Whitehorse, YT
2014 Sore Tales 864 13:08:32 Mixed 8 Person 0 284/316 mp Whitehorse, YT
2014 Will bike for beer 889 13:09:09 Mixed 8 Person 70 285/316 Whitehorse, YT
2014 Team 'Murica 501 13:13:36 Mixed 4 Person 62 286/316 Whitehorse, YT
2014 Team Williams and the Portuguese Buns 234 13:19:30 Womens 2 Person 9 287/316 Whitehorse, YT
2014 Fueled By Beer 437 13:34:02 Mixed 4 Person 63 288/316 Whitehorse, YT
2014 Les joyeux cyclistes 839 13:40:21 Mixed 8 Person 71 289/316 Whitehorse, YT
2014 Don't Stop Believing 115 13:48:52 Mens Solo 37 290/316 Juneau, AK
2014 Lichen the Ride 124 13:49:20 Womens Solo 8 291/316 Juneau, AK
2014 Joe White and the Seven Dwarfs 831 13:58:55 Mixed 8 Person 72 292/316 Whitehorse, YT
2014 #sassy 401 00:00:00 Womens 4 Person 0 293/316 dnf Whitehorse, YT
2014 4 the love of bike 403 00:00:00 Mens 4 Person 0 293/316 dnf whitehorse, YT
2014 CycleTherapy 113 00:00:00 Mens Solo 0 293/316 dnf Juneau, AK
2014 Dream team 821 00:00:00 Mixed 8 Person 0 293/316 dnf Whitehorse, YT
2014 Livin' on a Prayer 216 00:00:00 Mixed 2 Person 0 293/316 dnf Whitehorse, YT
2014 Lost in the space 217 00:00:00 Mens 2 Person 0 293/316 dnf Whitehorse, YT
2014 Mike LeBike@59 127 00:00:00 Mens Solo 0 293/316 dnf Whitehorse, YT
2014 NJO28 128 00:00:00 Womens Solo 0 293/316 dnf Taupo, NZ
2014 Pain Cave 131 00:00:00 Mens Solo 0 293/316 dnf Skagway, AK
2014 Peelin' Peddlers 472 00:00:00 Womens 4 Person 0 293/316 dnf Whitehorse, YT
2014 Senior Moment 140 00:00:00 Mens Solo 0 293/316 dnf Juneau, AK
2014 Smokin' Spokes 228 00:00:00 Mixed 2 Person 0 293/316 dnf Whitehorse, YT
2014 Solo Ray 143 00:00:00 Mens Solo 0 293/316 dnf Whitehorse, YT
2014 Straight no chaser 230 00:00:00 Mixed 2 Person 0 293/316 dnf Haines, AK
2014 TEAM DINO 499 00:00:00 Mixed 4 Person 0 293/316 dnf Whitehorse, YT
2014 Team Dynamic 150 00:00:00 Mens Solo 0 293/316 dnf Juneau, AK
2014 The Rolling Papers 876 00:00:00 Mixed 8 Person 0 293/316 dnf Haines, AK
2014 Tour de Friends 879 00:00:00 Mixed 8 Person 0 293/316 dnf Whitehorse, YT
2014 Two 4 The Road 239 00:00:00 Womens 2 Person 0 293/316 dns Whitehorse, YT
2014 Urban Painting 157 00:00:00 Mens Solo 0 293/316 dnf Whitehorse, YT
2014 Urban Painting Cycling Team 158 00:00:00 Mens Solo 0 293/316 dnf Whitehorse, YT
2014 WARM no ka 'oi 159 00:00:00 Mens Solo 0 293/316 dnf Skagway, AK
2014 Winers not Whiners - SinZin 250 00:00:00 Womens 2 Person 0 293/316 dnf Tempe, AZ
2014 JDS Energy 123 61:58:21 Mens Solo 0 316/316 dns Kelowna, BC
2013 Icycle 211 05:57:21 Mens 2 Person 1 1/272 Whitehorse, YT
2013 Garneau Evolution BSP 114 05:57:22 Mens Solo 1 2/272 Cloverdale, BC
2013 Retired Calves 459 06:03:04 Mens 4 Person 1 3/272 Whitehorse, YT
2013 Team Horton GoNuts 472 06:14:01 Mens 4 Person 2 4/272 Whitehorse, YT
2013 Urban Painting 140 06:14:12 Mens Solo 2 5/272 Whitehorse, YT
2013 Luigi 116 06:14:28 Mens Solo 3 6/272 Whitehorse, YT
2013 Organic Candy 122 06:15:05 Mens Solo 4 7/272 Skagway, AK
2013 Kluane 2 Chilkat 215 06:15:27 Mens 2 Person 2 8/272 Whitehorse, YT
2013 Paterball 220 06:15:36 Mixed 2 Person 1 9/272 Whitehorse, YT
2013 Spandex Wearing Granola Munchers 466 06:15:47 Mixed 4 Person 1 10/272 Whitehorse, YT
2013 Fart Box Smashers 425 06:20:34 Mens 4 Person 3 11/272 Whitehorse, YT
2013 B-spoke 106 06:20:50 Mens Solo 5 12/272 Toronto, ON
2013 Fueled by anger 112 06:26:50 Mens Solo 6 13/272 Juneau, AK
2013 The Flying Pikas 232 06:28:13 Mens 2 Person 3 14/272 Whitehorse, YT
2013 PhysioPlus 224 06:34:35 Mens 2 Person 4 15/272 Whitehorse, YT
2013 but I didn't call her fat 205 06:34:48 Mens 2 Person 5 16/272 Whitehorse, YT
2013 Paniagua 219 06:34:50 Mixed 2 Person 2 17/272 Juneau, AK
2013 Team CF Mixed Two 230 06:38:10 Mixed 2 Person 3 18/272 Whitehorse, YT
2013 UAF Commuters 488 06:38:14 Mixed 4 Person 2 19/272 Fairbanks, AK
2013 8 for 1 102 06:40:54 Mens Solo 7 20/272 Sitka, AK
2013 Sofa king slows 463 06:41:13 Mens 4 Person 4 21/272 Skagway, AK
2013 Ride My Leg 460 06:41:21 Mixed 4 Person 3 22/272 Whitehorse, YT
2013 Gottagetthere 210 06:41:29 Mens 2 Person 6 23/272 Whitehorse, YT
2013 Sk8erAde 462 06:41:34 Mens 4 Person 5 24/272 Whitehorse, YT
2013 Two heads are better than one 237 06:42:43 Mixed 2 Person 4 25/272 Whitehorse, YT
2013 Forrest Gump Fan Club 427 06:48:40 Mens 4 Person 6 26/272 Juneau, AK
2013 50ish shades of grey 404 06:56:26 Mixed 4 Person 4 27/272 whitehorse, YT
2013 Strada Cycles 134 06:58:01 Mens Solo 8 28/272 Vancouver, BC
2013 Red 8 128 06:58:11 Womens Solo 1 29/272 Haines, AK
2013 MILES AHEAD 218 06:58:25 Mixed 2 Person 5 30/272 Haines, AK
2013 kant rase ore spel 213 06:59:02 Mens 2 Person 7 31/272 Whitehorse, YT
2013 Numb, and dumb and dumber 448 07:00:30 Mixed 4 Person 5 32/272 Whitehorse, YT
2013 Cougar Attack! 420 07:02:10 Womens 4 Person 1 33/272 Whitehorse, YT
2013 Alpine Dermatology of Juneau 103 07:03:51 Mens Solo 9 34/272 Haines, AK
2013 Willy and the Gingers 496 07:04:06 Mixed 4 Person 6 35/272 Whitehorse, YT
2013 UnderHill1 489 07:04:52 Mixed 4 Person 7 36/272 whitehorse, YT
2013 Spontaneous Combination 469 07:05:17 Mixed 4 Person 8 37/272 Whitehorse, YT
2013 Riders of Rohan 228 07:08:52 Mixed 2 Person 6 38/272 Whitehorse, YT
2013 Pine dental 457 07:10:14 Mixed 4 Person 9 39/272 Whitehorse, YT
2013 Captain Barnacle, Dashy & Tweek 415 07:10:54 Mixed 4 Person 10 40/272 Whitehorse, YT
2013 Luna Chicks 442 07:11:05 Womens 4 Person 2 41/272 Whitehorse, YT
2013 Nolo Contendere 120 07:11:20 Mens Solo 10 42/272 Juneau, AK
2013 Nahku Bay 446 07:12:59 Mens 4 Person 7 43/272 Skagway, AK
2013 Bi-cycle Working Group 411 07:13:56 Mixed 4 Person 11 44/272 Juneau, AK
2013 Still spinning along 470 07:14:08 Mixed 4 Person 12 45/272 Whitehorse, YT
2013 The Cheetahs+ 478 07:14:17 Womens 4 Person 3 46/272 Whitehorse, YT
2013 Pants Party 123 07:14:53 Mens Solo 11 47/272 Whitehorse, YT
2013 wimp nothing 241 07:15:00 Mixed 2 Person 7 48/272 Whitehorse, YT
2013 no skirts no service 447 07:17:20 Womens 4 Person 4 49/272 Whitehorse, YT
2013 Older Budweiser 450 07:17:36 Mixed 4 Person 13 50/272 Whitehorse, YT
2013 ONE NUT SHY OF 8 451 07:17:48 Mens 4 Person 8 51/272 Whitehorse, YT
2013 Pamplemoose Parade 453 07:17:52 Womens 4 Person 5 52/272 Whitehorse, YT
2013 Idle No More 212 07:18:22 Mens 2 Person 8 53/272 Whitehorse, YT
2013 Holl-Ken-Holl-Jules 434 07:19:08 Womens 4 Person 6 54/272 Whitehorse, YT
2013 Gina and the Jets 429 07:19:18 Mixed 4 Person 14 55/272 Haines, AK
2013 Consulli 419 07:20:51 Mixed 4 Person 15 56/272 Whitehorse, YT
2013 Goldielocks And The 3 Buff Guys? 430 07:21:33 Mixed 4 Person 16 57/272 Whitehorse, YT
2013 Team Jam 231 07:21:43 Mixed 2 Person 8 58/272 Whitehorse, YT
2013 Let it Shine 441 07:22:19 Mixed 4 Person 17 59/272 Whitehorse, YT
2013 No Brakes 852 07:23:56 Mixed 8 Person 1 60/272 Whitehorse, YT
2013 Weapons of Ass Destruction 491 07:24:51 Mens 4 Person 9 61/272 Whitehorse, YT
2013 Team Cialis Hard Riders Ride Again 471 07:25:15 Mens 4 Person 10 62/272 Whitehorse, YT
2013 Too Dopey to Dope 485 07:25:29 Mixed 4 Person 18 63/272 Whitehorse, YT
2013 50 Percent (Off) Riders 201 07:26:46 Mixed 2 Person 9 64/272 Whitehorse, YT
2013 3 Fried & 1 Baked 402 07:26:54 Mixed 4 Person 19 65/272 Whitehorse, YT

Pages